Time;durP1;ratioP1;P1;durP2;ratioP2;P2;SDS_P1;SDS_P2;PMS_P1;PMS_P2;Temp;Humidity;BMP_temperature;BMP_pressure;BME280_temperature;BME280_humidity;BME280_pressure;Samples;Min_cycle;Max_cycle;Signal;HPM_P1;HPM_P2
2021/09/22 00:01:00;;;;;;;7.85;6.20;;;13.30;90.90;;;;;;5064419;28;20207;-58
2021/09/22 00:03:27;;;;;;;9.25;6.78;;;13.30;91.00;;;;;;5064317;28;20521;-59
2021/09/22 00:05:53;;;;;;;10.38;6.68;;;13.30;91.20;;;;;;5065055;28;20139;-59
2021/09/22 00:08:20;;;;;;;8.77;6.05;;;13.30;91.50;;;;;;5067269;28;20080;-59
2021/09/22 00:10:47;;;;;;;7.57;5.55;;;13.30;91.10;;;;;;5067700;28;20087;-59
2021/09/22 00:13:14;;;;;;;10.13;6.80;;;13.20;91.20;;;;;;5067171;28;20466;-59
2021/09/22 00:15:40;;;;;;;14.40;6.88;;;13.20;91.10;;;;;;5068425;28;20139;-59
2021/09/22 00:18:07;;;;;;;9.50;5.82;;;13.20;91.10;;;;;;5066492;28;20137;-59
2021/09/22 00:20:34;;;;;;;11.52;7.80;;;13.20;91.40;;;;;;5067958;28;20516;-60
2021/09/22 00:23:02;;;;;;;10.35;6.15;;;13.20;91.50;;;;;;5067056;28;20072;-59
2021/09/22 00:25:33;;;;;;;8.77;6.40;;;13.10;91.10;;;;;;5064644;28;20118;-59
2021/09/22 00:28:00;;;;;;;10.05;7.00;;;13.10;91.10;;;;;;5064151;28;20076;-59
2021/09/22 00:30:27;;;;;;;12.00;6.95;;;13.10;91.30;;;;;;5066550;28;20052;-59
2021/09/22 00:32:54;;;;;;;6.22;5.63;;;13.10;91.40;;;;;;5066349;28;20132;-59
2021/09/22 00:35:21;;;;;;;7.65;6.15;;;13.10;91.20;;;;;;5067421;28;20070;-59
2021/09/22 00:37:48;;;;;;;8.00;6.45;;;13.10;91.20;;;;;;5067130;28;20076;-59
2021/09/22 00:40:14;;;;;;;13.57;6.05;;;13.00;91.30;;;;;;5066561;28;20458;-59
2021/09/22 00:42:41;;;;;;;8.93;6.55;;;13.00;91.40;;;;;;5067645;28;20124;-59
2021/09/22 00:45:12;;;;;;;9.00;7.00;;;12.90;91.50;;;;;;5066968;28;20068;-59
2021/09/22 00:47:39;;;;;;;8.27;6.90;;;12.90;91.50;;;;;;5066989;28;20363;-59
2021/09/22 00:50:06;;;;;;;8.07;6.55;;;12.90;91.70;;;;;;5067596;28;20087;-59
2021/09/22 00:52:32;;;;;;;7.75;5.55;;;12.90;91.70;;;;;;5067419;28;20147;-59
2021/09/22 00:54:59;;;;;;;8.63;5.70;;;12.90;91.60;;;;;;5048364;28;20044;-61
2021/09/22 00:57:26;;;;;;;7.35;5.75;;;12.90;91.30;;;;;;5071595;28;20127;-59
2021/09/22 00:59:53;;;;;;;10.40;6.80;;;12.90;91.30;;;;;;5071585;28;20131;-59
2021/09/22 01:02:19;;;;;;;8.80;6.28;;;12.80;91.40;;;;;;5065038;28;20499;-59
2021/09/22 01:04:47;;;;;;;8.55;6.40;;;12.70;91.60;;;;;;5063221;28;20044;-60
2021/09/22 01:07:14;;;;;;;9.55;6.15;;;12.70;92.00;;;;;;5051139;28;20485;-60
2021/09/22 01:09:41;;;;;;;7.50;5.63;;;12.70;91.60;;;;;;5086420;28;20090;-59
2021/09/22 01:12:08;;;;;;;7.47;5.95;;;12.70;91.40;;;;;;5076054;28;20053;-59
2021/09/22 01:14:35;;;;;;;9.07;6.55;;;12.70;91.40;;;;;;5065477;28;20136;-59
2021/09/22 01:17:02;;;;;;;8.25;5.57;;;12.70;91.60;;;;;;5066849;28;20107;-59
2021/09/22 01:19:29;;;;;;;8.75;6.53;;;12.70;91.50;;;;;;5066775;28;20056;-59
2021/09/22 01:21:56;;;;;;;8.82;6.90;;;12.60;91.50;;;;;;5066499;28;20049;-59
2021/09/22 01:24:22;;;;;;;8.82;6.07;;;12.60;91.80;;;;;;5064980;28;20561;-59
2021/09/22 01:26:50;;;;;;;8.57;6.32;;;12.70;91.70;;;;;;5066333;28;20105;-60
2021/09/22 01:29:17;;;;;;;10.00;6.22;;;12.60;91.70;;;;;;5066834;28;20075;-59
2021/09/22 01:31:44;;;;;;;8.70;5.97;;;12.60;91.70;;;;;;5067497;28;20083;-60
2021/09/22 01:34:12;;;;;;;10.98;6.90;;;12.60;91.40;;;;;;5068097;28;20140;-59
2021/09/22 01:36:38;;;;;;;8.10;6.70;;;12.60;91.70;;;;;;5033494;28;20444;-59
2021/09/22 01:39:05;;;;;;;10.77;7.13;;;12.60;91.70;;;;;;5049524;28;20091;-59
2021/09/22 01:41:32;;;;;;;8.60;6.55;;;12.60;91.60;;;;;;5067853;28;20075;-59
2021/09/22 01:43:59;;;;;;;11.27;6.38;;;12.60;91.60;;;;;;5049140;28;20135;-59
2021/09/22 01:46:26;;;;;;;9.93;7.07;;;12.50;91.80;;;;;;5064315;28;20136;-59
2021/09/22 01:48:52;;;;;;;10.25;6.82;;;12.50;91.80;;;;;;5059799;28;20048;-59
2021/09/22 01:51:19;;;;;;;7.55;5.75;;;12.50;91.80;;;;;;5066858;28;20119;-60
2021/09/22 01:53:46;;;;;;;7.05;5.00;;;12.50;91.90;;;;;;5065683;28;20104;-60
2021/09/22 01:56:13;;;;;;;12.43;6.85;;;12.50;91.90;;;;;;5066043;28;20403;-59
2021/09/22 01:58:39;;;;;;;9.38;6.75;;;12.40;91.90;;;;;;5066039;28;20443;-59
2021/09/22 02:01:08;;;;;;;8.95;6.20;;;12.40;91.80;;;;;;5065842;28;20045;-59
2021/09/22 02:03:37;;;;;;;6.80;5.43;;;12.40;91.90;;;;;;5065872;28;20135;-59
2021/09/22 02:06:04;;;;;;;7.70;6.18;;;12.30;91.80;;;;;;5066875;28;20055;-59
2021/09/22 02:08:31;;;;;;;8.43;5.43;;;12.30;91.80;;;;;;5065392;28;20701;-59
2021/09/22 02:10:58;;;;;;;9.77;6.35;;;12.20;91.90;;;;;;5065717;28;20052;-59
2021/09/22 02:13:25;;;;;;;7.03;5.60;;;12.20;92.20;;;;;;5065503;28;20045;-59
2021/09/22 02:15:52;;;;;;;6.68;5.68;;;12.10;92.50;;;;;;5065970;28;20136;-59
2021/09/22 02:18:19;;;;;;;9.82;5.65;;;12.20;92.30;;;;;;5062741;28;20078;-59
2021/09/22 02:20:45;;;;;;;7.43;5.97;;;12.20;92.20;;;;;;5065795;28;20071;-60
2021/09/22 02:23:12;;;;;;;7.72;5.93;;;12.20;92.20;;;;;;5064844;28;20610;-59
2021/09/22 02:25:39;;;;;;;7.97;5.60;;;12.20;92.10;;;;;;5065357;28;20163;-59
2021/09/22 02:28:06;;;;;;;8.75;6.75;;;12.10;92.10;;;;;;5066184;28;20102;-59
2021/09/22 02:30:32;;;;;;;9.57;6.60;;;12.10;92.00;;;;;;5061120;28;20555;-58
2021/09/22 02:32:59;;;;;;;8.20;5.95;;;12.10;92.20;;;;;;5059936;28;20063;-59
2021/09/22 02:35:26;;;;;;;8.93;6.40;;;12.10;91.90;;;;;;5065677;28;20126;-59
2021/09/22 02:37:53;;;;;;;9.10;6.22;;;12.00;92.00;;;;;;5065250;28;20162;-59
2021/09/22 02:40:20;;;;;;;9.88;6.78;;;12.00;91.80;;;;;;5064091;28;20127;-59
2021/09/22 02:42:47;;;;;;;6.97;5.82;;;12.00;91.70;;;;;;5065377;28;20080;-59
2021/09/22 02:45:14;;;;;;;6.35;5.38;;;12.00;91.90;;;;;;5047609;28;20072;-58
2021/09/22 02:47:41;;;;;;;8.20;5.45;;;12.00;91.90;;;;;;5080963;28;20068;-59
2021/09/22 02:50:08;;;;;;;8.07;6.03;;;12.00;91.80;;;;;;5058724;28;20131;-59
2021/09/22 02:52:34;;;;;;;7.40;5.97;;;12.00;92.00;;;;;;5047742;28;20040;-59
2021/09/22 02:55:01;;;;;;;8.10;5.63;;;12.00;92.00;;;;;;5067795;28;20523;-58
2021/09/22 02:57:28;;;;;;;9.73;6.40;;;11.90;92.00;;;;;;5070816;28;20139;-58
2021/09/22 02:59:54;;;;;;;7.82;5.82;;;11.90;92.20;;;;;;5070153;28;20067;-59
2021/09/22 03:02:21;;;;;;;8.32;6.13;;;11.90;92.20;;;;;;5068473;28;20082;-59
2021/09/22 03:04:48;;;;;;;7.90;6.20;;;11.90;92.00;;;;;;5069802;28;20545;-59
2021/09/22 03:07:15;;;;;;;8.73;6.03;;;11.80;92.00;;;;;;5068729;28;20083;-60
2021/09/22 03:09:42;;;;;;;8.38;6.05;;;11.80;92.20;;;;;;5069566;28;20080;-59
2021/09/22 03:12:09;;;;;;;7.38;5.90;;;11.80;92.20;;;;;;5069246;28;20480;-59
2021/09/22 03:14:36;;;;;;;7.22;5.80;;;11.80;92.20;;;;;;5069366;28;20057;-59
2021/09/22 03:17:03;;;;;;;12.48;6.53;;;11.80;91.90;;;;;;5050860;28;20475;-60
2021/09/22 03:19:29;;;;;;;7.43;6.00;;;11.80;92.00;;;;;;5069607;28;20084;-60
2021/09/22 03:21:56;;;;;;;7.25;5.60;;;11.70;91.90;;;;;;5069842;28;20156;-60
2021/09/22 03:24:23;;;;;;;9.95;6.35;;;11.70;92.10;;;;;;5069860;28;20144;-59
2021/09/22 03:26:50;;;;;;;8.95;6.03;;;11.70;92.30;;;;;;5069062;28;20139;-59
2021/09/22 03:29:16;;;;;;;6.28;5.43;;;11.60;92.10;;;;;;5051572;28;20139;-60
2021/09/22 03:31:44;;;;;;;9.75;6.25;;;11.60;92.40;;;;;;5068105;28;20131;-59
2021/09/22 03:34:11;;;;;;;9.32;6.35;;;11.70;92.30;;;;;;5069461;28;20148;-60
2021/09/22 03:36:37;;;;;;;8.45;6.07;;;11.60;92.30;;;;;;5069158;28;20471;-58
2021/09/22 03:39:04;;;;;;;8.70;5.75;;;11.60;92.10;;;;;;5051649;28;20068;-59
2021/09/22 03:41:31;;;;;;;9.57;5.85;;;11.60;92.30;;;;;;5051065;28;20061;-59
2021/09/22 03:43:58;;;;;;;7.65;6.13;;;11.60;92.40;;;;;;5069091;28;20143;-59
2021/09/22 03:46:24;;;;;;;8.27;5.28;;;11.60;92.10;;;;;;5069695;28;20127;-60
2021/09/22 03:48:51;;;;;;;7.70;5.43;;;11.60;92.10;;;;;;5067983;28;20144;-59
2021/09/22 03:51:18;;;;;;;8.45;6.82;;;11.60;92.00;;;;;;5069692;28;20045;-59
2021/09/22 03:53:45;;;;;;;8.73;6.13;;;11.50;92.10;;;;;;5068928;28;20106;-60
2021/09/22 03:56:11;;;;;;;11.63;6.82;;;11.50;92.10;;;;;;5068484;28;20575;-59
2021/09/22 03:58:38;;;;;;;7.28;5.72;;;11.50;92.60;;;;;;5068086;28;20087;-59
2021/09/22 04:01:05;;;;;;;6.80;5.18;;;11.50;92.20;;;;;;5050997;28;20080;-59
2021/09/22 04:03:32;;;;;;;8.50;5.95;;;11.50;92.00;;;;;;5067919;28;20045;-59
2021/09/22 04:05:59;;;;;;;8.70;5.78;;;11.50;92.30;;;;;;5069110;28;20102;-59
2021/09/22 04:08:26;;;;;;;8.57;5.55;;;11.50;92.40;;;;;;5068593;28;20095;-59
2021/09/22 04:10:53;;;;;;;8.73;7.00;;;11.40;92.20;;;;;;5068456;28;20072;-59
2021/09/22 04:13:19;;;;;;;8.02;5.80;;;11.40;92.30;;;;;;5068107;28;20143;-59
2021/09/22 04:15:46;;;;;;;6.95;5.22;;;11.40;92.40;;;;;;5068045;28;20136;-59
2021/09/22 04:18:13;;;;;;;8.55;5.75;;;11.40;92.40;;;;;;5067293;28;20151;-60
2021/09/22 04:20:40;;;;;;;8.15;6.03;;;11.30;92.20;;;;;;5067775;28;20129;-59
2021/09/22 04:23:06;;;;;;;8.65;5.75;;;11.30;92.20;;;;;;5068513;28;20091;-59
2021/09/22 04:25:33;;;;;;;6.53;4.90;;;11.30;92.30;;;;;;5068352;28;20202;-59
2021/09/22 04:28:00;;;;;;;8.57;5.50;;;11.30;92.10;;;;;;5068429;28;20384;-60
2021/09/22 04:30:27;;;;;;;9.52;6.68;;;11.30;92.10;;;;;;5068194;28;20072;-59
2021/09/22 04:32:53;;;;;;;6.55;5.25;;;11.20;92.10;;;;;;5067303;28;20072;-59
2021/09/22 04:35:20;;;;;;;10.05;6.10;;;11.20;92.50;;;;;;5068187;28;20448;-59
2021/09/22 04:37:47;;;;;;;7.45;5.45;;;11.20;92.40;;;;;;5068240;28;20127;-59
2021/09/22 04:40:14;;;;;;;11.85;5.60;;;11.20;92.40;;;;;;5067472;28;20128;-59
2021/09/22 04:42:41;;;;;;;7.15;5.45;;;11.20;92.40;;;;;;5068297;28;20119;-59
2021/09/22 04:45:09;;;;;;;8.80;6.03;;;11.20;92.60;;;;;;5066104;28;20095;-59
2021/09/22 04:47:37;;;;;;;7.63;6.07;;;11.20;92.50;;;;;;5042846;28;20044;-59
2021/09/22 04:50:05;;;;;;;7.65;5.85;;;11.10;92.50;;;;;;5060913;28;20091;-60
2021/09/22 04:52:32;;;;;;;7.80;5.85;;;11.20;92.80;;;;;;5062157;28;20135;-60
2021/09/22 04:54:58;;;;;;;9.52;6.18;;;11.20;92.60;;;;;;5062462;28;20460;-60
2021/09/22 04:57:25;;;;;;;10.23;6.03;;;11.10;92.50;;;;;;5063386;28;20087;-60
2021/09/22 04:59:52;;;;;;;9.35;5.90;;;11.20;92.50;;;;;;5077048;28;20079;-59
2021/09/22 05:02:19;;;;;;;9.00;6.40;;;11.10;92.30;;;;;;5081539;28;20505;-60
2021/09/22 05:04:47;;;;;;;9.85;5.50;;;11.10;92.40;;;;;;5084031;28;20048;-61
2021/09/22 05:07:13;;;;;;;7.22;5.65;;;11.10;92.50;;;;;;5082007;28;20496;-60
2021/09/22 05:09:40;;;;;;;7.22;5.85;;;11.10;92.50;;;;;;5083374;28;20095;-60
2021/09/22 05:12:07;;;;;;;22.92;7.70;;;11.10;92.60;;;;;;5083303;28;20078;-60
2021/09/22 05:14:34;;;;;;;10.45;6.13;;;11.00;92.70;;;;;;5083391;28;20079;-60
2021/09/22 05:17:00;;;;;;;8.27;5.65;;;11.00;92.70;;;;;;5081620;28;20127;-60
2021/09/22 05:19:27;;;;;;;7.80;5.70;;;11.00;92.60;;;;;;5082741;28;20105;-60
2021/09/22 05:21:54;;;;;;;9.80;5.90;;;11.00;92.70;;;;;;5083352;28;20479;-60
2021/09/22 05:24:21;;;;;;;9.38;6.50;;;11.00;92.60;;;;;;5060027;28;20068;-60
2021/09/22 05:26:48;;;;;;;9.27;7.32;;;11.00;92.70;;;;;;5040205;28;20473;-60
2021/09/22 05:29:15;;;;;;;9.73;6.63;;;11.00;92.60;;;;;;5062196;28;20139;-60
2021/09/22 05:31:43;;;;;;;9.88;6.53;;;11.00;92.60;;;;;;5031188;28;20128;-60
2021/09/22 05:34:10;;;;;;;9.55;5.00;;;11.00;92.70;;;;;;5043374;28;20106;-60
2021/09/22 05:36:37;;;;;;;10.27;6.28;;;11.00;92.70;;;;;;5061718;28;20151;-60
2021/09/22 05:39:04;;;;;;;7.32;6.13;;;10.90;92.70;;;;;;5060711;28;20131;-60
2021/09/22 05:41:31;;;;;;;8.95;6.93;;;10.90;92.70;;;;;;5061168;28;20045;-60
2021/09/22 05:43:58;;;;;;;12.98;8.02;;;10.90;92.80;;;;;;5060859;28;20158;-60
2021/09/22 05:46:25;;;;;;;9.07;6.10;;;10.90;92.50;;;;;;5061625;28;20128;-60
2021/09/22 05:48:51;;;;;;;9.43;5.47;;;11.00;92.50;;;;;;5062121;28;20044;-59
2021/09/22 05:51:18;;;;;;;7.13;5.13;;;10.90;92.40;;;;;;5062590;28;20434;-61
2021/09/22 05:53:45;;;;;;;6.93;5.63;;;10.90;92.60;;;;;;5061637;28;20091;-63
2021/09/22 05:56:12;;;;;;;7.00;6.10;;;10.80;92.60;;;;;;5060448;28;20066;-60
2021/09/22 05:58:38;;;;;;;10.82;6.57;;;10.80;92.60;;;;;;5061705;28;20136;-61
2021/09/22 06:01:05;;;;;;;8.30;6.28;;;10.80;92.70;;;;;;5062687;28;20127;-60
2021/09/22 06:03:34;;;;;;;9.57;6.50;;;10.90;92.70;;;;;;5060475;28;20064;-59
2021/09/22 06:06:01;;;;;;;10.02;5.90;;;10.90;92.70;;;;;;5062367;28;20044;-59
2021/09/22 06:08:28;;;;;;;9.73;7.95;;;10.90;92.60;;;;;;5057604;28;20163;-60
2021/09/22 06:10:55;;;;;;;12.13;8.38;;;10.90;92.80;;;;;;5042900;28;20041;-59
2021/09/22 06:13:22;;;;;;;14.30;8.98;;;10.90;92.80;;;;;;5059172;28;20563;-59
2021/09/22 06:15:51;;;;;;;10.70;5.97;;;10.90;92.80;;;;;;5059813;28;20163;-59
2021/09/22 06:18:18;;;;;;;8.73;5.90;;;11.00;92.90;;;;;;5058780;28;20063;-59
2021/09/22 06:20:44;;;;;;;13.18;5.68;;;11.00;92.70;;;;;;5058987;28;20523;-59
2021/09/22 06:23:11;;;;;;;14.10;6.75;;;11.00;92.70;;;;;;5058264;28;20659;-59
2021/09/22 06:25:38;;;;;;;9.40;6.10;;;11.00;92.60;;;;;;5060268;28;20290;-59
2021/09/22 06:28:05;;;;;;;8.20;5.78;;;11.10;92.70;;;;;;5059055;28;20098;-59
2021/09/22 06:30:32;;;;;;;8.20;6.15;;;11.10;92.60;;;;;;5059466;28;20411;-60
2021/09/22 06:32:59;;;;;;;8.82;5.97;;;11.20;92.70;;;;;;5059634;28;20040;-59
2021/09/22 06:35:26;;;;;;;7.82;6.25;;;11.20;92.60;;;;;;5043752;28;20568;-60
2021/09/22 06:37:52;;;;;;;8.65;6.53;;;11.30;92.60;;;;;;5061738;28;20080;-61
2021/09/22 06:40:20;;;;;;;11.65;6.28;;;11.30;92.50;;;;;;5060538;28;20523;-60
2021/09/22 06:42:47;;;;;;;11.77;6.57;;;11.40;92.60;;;;;;5044192;28;20080;-60
2021/09/22 06:45:15;;;;;;;8.60;6.35;;;11.50;92.60;;;;;;5061623;28;20539;-61
2021/09/22 06:47:41;;;;;;;11.48;6.60;;;11.50;92.60;;;;;;5061231;28;20462;-61
2021/09/22 06:50:09;;;;;;;9.23;6.40;;;11.60;92.40;;;;;;5061591;28;20215;-60
2021/09/22 06:52:35;;;;;;;10.35;6.68;;;11.60;92.50;;;;;;5062009;28;20087;-61
2021/09/22 06:55:03;;;;;;;7.10;6.38;;;11.70;92.70;;;;;;5060745;28;20563;-61
2021/09/22 06:57:30;;;;;;;11.52;8.27;;;11.70;92.80;;;;;;5061607;28;20080;-61
2021/09/22 06:59:56;;;;;;;14.63;7.32;;;11.80;92.80;;;;;;5043511;28;20048;-60
2021/09/22 07:02:23;;;;;;;8.18;6.50;;;11.80;92.80;;;;;;5059341;28;20135;-61
2021/09/22 07:04:51;;;;;;;12.52;7.78;;;11.90;92.70;;;;;;5062136;28;20053;-60
2021/09/22 07:07:18;;;;;;;10.98;7.32;;;11.90;92.90;;;;;;5061863;28;20082;-60
2021/09/22 07:09:44;;;;;;;11.30;7.15;;;12.00;92.90;;;;;;5061564;28;20060;-61
2021/09/22 07:12:11;;;;;;;8.43;7.18;;;12.10;92.90;;;;;;5060763;28;20599;-61
2021/09/22 07:14:38;;;;;;;12.18;8.63;;;12.10;92.70;;;;;;5061508;28;20087;-60
2021/09/22 07:17:05;;;;;;;12.50;8.13;;;12.20;92.70;;;;;;5060459;28;20098;-59
2021/09/22 07:19:31;;;;;;;15.07;10.32;;;12.20;92.70;;;;;;5059796;28;20814;-59
2021/09/22 07:21:59;;;;;;;13.70;8.07;;;12.30;92.70;;;;;;5060210;28;20139;-59
2021/09/22 07:24:27;;;;;;;11.57;8.10;;;12.30;92.90;;;;;;5059591;28;20075;-60
2021/09/22 07:26:53;;;;;;;13.38;8.93;;;12.40;93.10;;;;;;5060309;28;20080;-59
2021/09/22 07:29:20;;;;;;;11.48;8.63;;;12.50;93.00;;;;;;5061160;28;20060;-60
2021/09/22 07:31:47;;;;;;;9.93;8.15;;;12.50;93.10;;;;;;5057662;28;20128;-60
2021/09/22 07:34:13;;;;;;;13.95;8.98;;;12.60;93.50;;;;;;5059684;28;20135;-59
2021/09/22 07:36:46;;;;;;;11.85;9.57;;;12.80;93.80;;;;;;5059543;28;20056;-59
2021/09/22 07:39:13;;;;;;;14.98;9.88;;;12.80;94.00;;;;;;5058671;28;20148;-59
2021/09/22 07:41:40;;;;;;;17.60;9.18;;;13.00;94.00;;;;;;5062776;28;20476;-59
2021/09/22 07:44:07;;;;;;;10.90;9.48;;;13.10;94.00;;;;;;5061575;28;20554;-58
2021/09/22 07:46:34;;;;;;;12.50;9.05;;;13.30;93.90;;;;;;5061741;28;20083;-59
2021/09/22 07:49:01;;;;;;;16.58;9.80;;;13.30;93.80;;;;;;5062827;28;20044;-59
2021/09/22 07:51:27;;;;;;;13.95;9.48;;;13.50;93.70;;;;;;5063103;28;20127;-59
2021/09/22 07:53:54;;;;;;;14.93;8.98;;;13.60;93.70;;;;;;5060094;28;20098;-59
2021/09/22 07:56:21;;;;;;;14.55;9.00;;;13.70;93.70;;;;;;5060245;28;20139;-58
2021/09/22 07:58:47;;;;;;;12.43;9.35;;;13.80;93.40;;;;;;5060471;28;20132;-59
2021/09/22 08:01:14;;;;;;;10.60;8.70;;;13.90;93.30;;;;;;5060192;28;20587;-59
2021/09/22 08:03:41;;;;;;;11.43;8.35;;;14.00;93.30;;;;;;5059136;28;20072;-59
2021/09/22 08:06:08;;;;;;;13.23;8.98;;;14.10;93.20;;;;;;5061116;28;20052;-60
2021/09/22 08:08:35;;;;;;;11.10;8.50;;;14.20;93.10;;;;;;5060620;28;20037;-59
2021/09/22 08:11:03;;;;;;;12.93;8.80;;;14.30;93.10;;;;;;5042017;28;20620;-59
2021/09/22 08:13:30;;;;;;;13.93;7.95;;;14.40;93.20;;;;;;5059521;28;20155;-59
2021/09/22 08:15:57;;;;;;;12.98;8.05;;;14.50;92.70;;;;;;5061660;28;20101;-59
2021/09/22 08:18:23;;;;;;;9.70;7.57;;;14.60;92.50;;;;;;5058562;28;20044;-59
2021/09/22 08:20:50;;;;;;;11.60;7.80;;;14.70;92.30;;;;;;5060991;28;20529;-59
2021/09/22 08:23:19;;;;;;;11.20;7.72;;;14.80;92.10;;;;;;5059759;28;20443;-59
2021/09/22 08:25:46;;;;;;;9.88;7.80;;;14.90;92.00;;;;;;5060319;28;20541;-59
2021/09/22 08:28:13;;;;;;;16.13;9.05;;;14.90;91.80;;;;;;5057289;28;20084;-59
2021/09/22 08:30:40;;;;;;;13.65;7.03;;;15.00;91.80;;;;;;5061270;28;20748;-60
2021/09/22 08:33:07;;;;;;;11.85;7.60;;;15.20;91.60;;;;;;5059646;28;20164;-60
2021/09/22 08:35:34;;;;;;;12.05;7.57;;;15.30;91.40;;;;;;5060005;28;20051;-60
2021/09/22 08:38:01;;;;;;;11.55;7.50;;;15.30;91.10;;;;;;5060311;28;20141;-59
2021/09/22 08:40:28;;;;;;;11.43;6.20;;;15.40;90.80;;;;;;5059172;28;20080;-60
2021/09/22 08:42:55;;;;;;;11.60;7.28;;;15.50;91.00;;;;;;5060422;28;20177;-59
2021/09/22 08:45:22;;;;;;;8.93;6.18;;;15.60;90.50;;;;;;5041152;28;20044;-60
2021/09/22 08:47:49;;;;;;;7.63;6.13;;;15.70;90.80;;;;;;5056524;28;20503;-59
2021/09/22 08:50:17;;;;;;;7.82;5.82;;;15.80;90.20;;;;;;5060407;28;20084;-60
2021/09/22 08:52:45;;;;;;;8.98;5.53;;;15.90;90.10;;;;;;5027786;28;20138;-60
2021/09/22 08:55:12;;;;;;;8.50;4.13;;;16.00;90.00;;;;;;5058787;28;20068;-60
2021/09/22 08:57:39;;;;;;;7.53;3.90;;;16.10;89.10;;;;;;5060295;28;20076;-60
2021/09/22 09:00:07;;;;;;;10.57;4.57;;;16.30;86.90;;;;;;5060341;28;20044;-60
2021/09/22 09:02:38;;;;;;;7.00;4.13;;;16.40;86.20;;;;;;5059010;28;20099;-60
2021/09/22 09:05:08;;;;;;;11.98;3.50;;;16.60;85.10;;;;;;5041860;28;20172;-59
2021/09/22 09:07:55;;;;;;;11.40;4.30;;;16.70;85.10;;;;;;5043031;28;20552;-60
2021/09/22 09:10:27;;;;;;;4.28;3.03;;;16.80;82.10;;;;;;5058740;28;20080;-60
2021/09/22 09:13:07;;;;;;;6.70;3.45;;;16.90;83.10;;;;;;5041661;28;20098;-60
2021/09/22 09:15:45;;;;;;;7.68;4.00;;;17.00;81.60;;;;;;5058857;28;20144;-60
2021/09/22 09:18:13;;;;;;;6.93;3.30;;;17.10;81.80;;;;;;5040421;28;20048;-60
2021/09/22 09:20:40;;;;;;;4.90;3.17;;;17.20;82.30;;;;;;5059654;28;20602;-60
2021/09/22 09:23:16;;;;;;;9.35;4.38;;;17.30;81.20;;;;;;5056747;28;20700;-60
2021/09/22 09:25:53;;;;;;;7.88;3.85;;;17.40;80.60;;;;;;5058558;28;20131;-60
2021/09/22 09:28:22;;;;;;;7.32;3.88;;;17.40;81.60;;;;;;5061837;28;20062;-59
2021/09/22 09:30:55;;;;;;;9.15;4.65;;;17.50;80.90;;;;;;5062084;28;20128;-60
2021/09/22 09:33:50;;;;;;;9.03;4.27;;;17.60;79.70;;;;;;5059076;28;20123;-60
2021/09/22 09:36:32;;;;;;;11.90;4.43;;;17.70;79.50;;;;;;5041536;28;20421;-60
2021/09/22 09:39:11;;;;;;;9.52;3.80;;;17.80;78.40;;;;;;5057665;28;20048;-60
2021/09/22 09:41:57;;;;;;;7.93;3.35;;;17.90;78.70;;;;;;5057744;28;20147;-60
2021/09/22 09:44:26;;;;;;;7.22;4.05;;;18.00;76.80;;;;;;5058766;28;20135;-60
2021/09/22 09:46:54;;;;;;;6.07;3.65;;;18.00;77.70;;;;;;5056295;28;20162;-60
2021/09/22 09:49:22;;;;;;;5.95;3.22;;;18.10;77.90;;;;;;5040542;28;20484;-61
2021/09/22 09:51:51;;;;;;;5.22;3.22;;;18.20;77.20;;;;;;5059147;28;20095;-60
2021/09/22 09:54:19;;;;;;;5.68;2.70;;;18.20;76.30;;;;;;5057229;28;20606;-60
2021/09/22 09:56:46;;;;;;;7.45;2.88;;;18.30;76.00;;;;;;5057952;28;20145;-60
2021/09/22 09:59:13;;;;;;;4.88;3.25;;;18.30;76.30;;;;;;5039773;28;20151;-60
2021/09/22 10:01:41;;;;;;;5.22;3.20;;;18.40;76.50;;;;;;5057390;28;20134;-60
2021/09/22 10:04:09;;;;;;;9.05;4.25;;;18.50;76.50;;;;;;5058678;28;20143;-60
2021/09/22 10:06:36;;;;;;;5.82;2.85;;;18.60;75.90;;;;;;5058449;28;20554;-60
2021/09/22 10:09:03;;;;;;;5.07;2.45;;;18.70;75.50;;;;;;5058590;28;20764;-60
2021/09/22 10:11:32;;;;;;;6.75;3.00;;;18.80;75.00;;;;;;5056527;28;20460;-60
2021/09/22 10:13:59;;;;;;;6.95;2.35;;;18.80;75.10;;;;;;5058631;28;20550;-60
2021/09/22 10:16:26;;;;;;;6.20;2.38;;;19.00;74.40;;;;;;5023847;28;20083;-60
2021/09/22 10:18:55;;;;;;;4.57;2.65;;;19.10;72.60;;;;;;5043789;28;20097;-60
2021/09/22 10:21:22;;;;;;;8.55;2.75;;;19.20;73.70;;;;;;5058732;28;20132;-60
2021/09/22 10:23:50;;;;;;;7.88;2.50;;;19.20;72.20;;;;;;5057896;28;20139;-60
2021/09/22 10:26:17;;;;;;;6.68;2.50;;;19.30;71.70;;;;;;5023942;28;20133;-60
2021/09/22 10:28:45;;;;;;;4.68;2.17;;;19.30;70.80;;;;;;5023020;28;20052;-60
2021/09/22 10:31:14;;;;;;;6.45;2.60;;;19.30;71.70;;;;;;5055723;28;20163;-60
2021/09/22 10:33:43;;;;;;;4.90;2.53;;;19.30;71.50;;;;;;5057771;28;20044;-61
2021/09/22 10:36:11;;;;;;;6.97;2.40;;;19.30;69.40;;;;;;5058813;28;20131;-60
2021/09/22 10:38:40;;;;;;;5.13;2.40;;;19.40;70.80;;;;;;5057574;28;20148;-60
2021/09/22 10:41:07;;;;;;;6.43;2.55;;;19.50;69.90;;;;;;5054383;28;20156;-60
2021/09/22 10:43:52;;;;;;;5.85;2.10;;;19.60;69.80;;;;;;5038066;28;20179;-61
2021/09/22 10:46:19;;;;;;;6.82;2.90;;;19.70;66.90;;;;;;5053242;28;20182;-60
2021/09/22 10:48:56;;;;;;;6.00;2.38;;;19.80;68.10;;;;;;5057013;28;20048;-60
2021/09/22 10:51:44;;;;;;;6.47;2.25;;;19.80;67.80;;;;;;5054542;28;20594;-60
2021/09/22 10:54:19;;;;;;;6.05;2.80;;;19.90;66.40;;;;;;5042696;28;20139;-60
2021/09/22 10:56:55;;;;;;;4.57;2.65;;;19.90;68.10;;;;;;5057083;28;20511;-60
2021/09/22 10:59:32;;;;;;;5.88;2.67;;;20.00;67.70;;;;;;5019029;28;20056;-61
2021/09/22 11:01:59;;;;;;;5.78;3.22;;;19.90;66.60;;;;;;5056845;28;20072;-61
2021/09/22 11:04:27;;;;;;;6.40;3.67;;;19.90;67.90;;;;;;5042155;28;20052;-61
2021/09/22 11:06:54;;;;;;;5.60;3.33;;;20.00;67.70;;;;;;5059749;28;20580;-61
2021/09/22 11:09:24;;;;;;;5.13;2.95;;;20.10;67.80;;;;;;5058352;28;20079;-61
2021/09/22 11:11:57;;;;;;;4.53;2.63;;;20.20;66.20;;;;;;5051286;28;20160;-60
2021/09/22 11:14:30;;;;;;;6.78;3.25;;;20.30;66.60;;;;;;5058983;28;20151;-61
2021/09/22 11:17:11;;;;;;;5.80;3.38;;;20.50;64.30;;;;;;5061738;28;20727;-61
2021/09/22 11:19:46;;;;;;;7.82;4.97;;;20.60;64.50;;;;;;5062292;28;20102;-60
2021/09/22 11:22:14;;;;;;;8.80;5.50;;;20.80;63.70;;;;;;5045195;28;20127;-60
2021/09/22 11:24:42;;;;;;;10.52;6.70;;;21.00;64.10;;;;;;5063430;28;20148;-61
2021/09/22 11:27:17;;;;;;;10.60;5.60;;;21.10;63.00;;;;;;5062058;28;20504;-61
2021/09/22 11:29:49;;;;;;;7.00;3.25;;;21.30;63.60;;;;;;5062634;28;20080;-61
2021/09/22 11:32:26;;;;;;;8.00;2.60;;;21.30;62.90;;;;;;5061311;28;20090;-61
2021/09/22 11:34:54;;;;;;;7.47;3.03;;;21.50;62.00;;;;;;5062369;28;20048;-60
2021/09/22 11:37:21;;;;;;;8.32;3.90;;;21.60;62.10;;;;;;5045023;28;20148;-61
2021/09/22 11:39:48;;;;;;;4.72;2.72;;;21.80;64.00;;;;;;5050480;28;20091;-61
2021/09/22 11:42:16;;;;;;;5.90;2.80;;;21.90;63.20;;;;;;5061688;28;20501;-61
2021/09/22 11:44:43;;;;;;;3.90;2.65;;;21.80;60.60;;;;;;5062189;28;20997;-61
2021/09/22 11:47:10;;;;;;;6.22;2.45;;;21.90;63.00;;;;;;5061198;28;20114;-61
2021/09/22 11:49:41;;;;;;;3.70;2.60;;;22.20;63.20;;;;;;5072881;28;20125;-61
2021/09/22 11:52:15;;;;;;;4.47;2.75;;;22.30;61.60;;;;;;5062942;28;20052;-61
2021/09/22 11:54:43;;;;;;;4.75;3.00;;;22.60;60.10;;;;;;5062821;28;20053;-60
2021/09/22 11:57:11;;;;;;;5.47;3.17;;;22.70;61.60;;;;;;5077181;28;20052;-60
2021/09/22 11:59:38;;;;;;;7.13;3.22;;;22.90;62.30;;;;;;5074677;28;20135;-60
2021/09/22 12:02:05;;;;;;;4.78;2.80;;;23.10;57.50;;;;;;5061289;28;20588;-61
2021/09/22 12:04:44;;;;;;;4.63;2.90;;;23.50;60.80;;;;;;5064594;28;20127;-61
2021/09/22 12:07:11;;;;;;;4.00;2.65;;;23.90;56.30;;;;;;5065089;28;20133;-61
2021/09/22 12:09:46;;;;;;;6.05;2.95;;;24.00;58.40;;;;;;5066995;28;20060;-61
2021/09/22 12:12:17;;;;;;;5.13;2.67;;;24.20;55.00;;;;;;5066019;28;20680;-61
2021/09/22 12:14:52;;;;;;;11.10;3.05;;;24.50;57.30;;;;;;5046808;28;20045;-61
2021/09/22 12:17:21;;;;;;;4.38;2.60;;;24.70;57.20;;;;;;5045831;28;20159;-62
2021/09/22 12:19:48;;;;;;;4.47;2.78;;;25.00;56.50;;;;;;5061791;28;20148;-62
2021/09/22 12:22:21;;;;;;;4.13;2.65;;;25.10;55.60;;;;;;5064458;28;20083;-62
2021/09/22 12:24:48;;;;;;;4.97;2.80;;;25.20;53.90;;;;;;5063657;28;20484;-61
2021/09/22 12:27:17;;;;;;;5.13;2.92;;;25.40;56.00;;;;;;5061880;28;20123;-62
2021/09/22 12:29:57;;;;;;;6.40;2.20;;;25.70;54.80;;;;;;5045191;28;20091;-61
2021/09/22 12:32:26;;;;;;;7.00;2.55;;;26.00;51.90;;;;;;5061573;28;20098;-62
2021/09/22 12:34:53;;;;;;;4.78;2.70;;;26.40;52.80;;;;;;5063773;28;20072;-62
2021/09/22 12:37:22;;;;;;;4.85;3.28;;;26.30;51.00;;;;;;5062343;28;20101;-62
2021/09/22 12:40:05;;;;;;;4.82;3.10;;;26.30;51.70;;;;;;5056471;28;20106;-62
2021/09/22 12:42:46;;;;;;;7.00;2.78;;;26.30;51.50;;;;;;5061852;28;20671;-61
2021/09/22 12:45:21;;;;;;;3.35;2.38;;;25.90;51.00;;;;;;5058759;28;20063;-61
2021/09/22 12:47:54;;;;;;;6.18;2.60;;;25.20;52.50;;;;;;5062345;28;20384;-61